createdAt,value
2022-11-23T00:01:41.568Z,1.50
2022-11-23T00:06:40.801Z,1.60
2022-11-23T00:09:12.624Z,1.70
2022-11-23T00:11:41.209Z,1.90
2022-11-23T00:14:09.840Z,2.08
2022-11-23T00:19:06.479Z,1.98
2022-11-23T00:24:03.405Z,1.90
2022-11-23T00:26:33.363Z,1.98
2022-11-23T00:29:01.855Z,2.00
2022-11-23T00:31:30.376Z,1.88
2022-11-23T00:33:59.355Z,2.22
2022-11-23T00:36:29.388Z,1.98
2022-11-23T00:39:01.059Z,2.25
2022-11-23T00:41:29.840Z,1.95
2022-11-23T00:46:29.513Z,1.92
2022-11-23T00:48:58.989Z,2.20
2022-11-23T00:51:29.926Z,2.10
2022-11-23T00:53:59.678Z,2.22
2022-11-23T00:56:29.035Z,2.13
2022-11-23T00:59:00.531Z,2.20
2022-11-23T01:01:31.080Z,2.55
2022-11-23T01:04:00.977Z,2.47
2022-11-23T01:06:34.485Z,2.55
2022-11-23T01:09:05.931Z,2.40
2022-11-23T01:11:34.615Z,2.53
2022-11-23T01:14:05.280Z,2.55
2022-11-23T01:16:36.167Z,2.45
2022-11-23T01:19:07.635Z,2.60
2022-11-23T01:21:37.258Z,2.45
2022-11-23T01:24:09.636Z,2.97
2022-11-23T01:26:40.998Z,3.13
2022-11-23T01:29:11.228Z,3.33
2022-11-23T01:31:46.097Z,2.92
2022-11-23T01:34:17.142Z,3.03
2022-11-23T01:36:46.544Z,2.80
2022-11-23T01:39:15.538Z,3.10
2022-11-23T01:41:46.142Z,2.95
2022-11-23T01:44:38.623Z,2.97
2022-11-23T01:47:09.424Z,3.47
2022-11-23T01:49:42.280Z,3.00
2022-11-23T01:52:17.123Z,2.70
2022-11-23T01:54:48.474Z,2.65
2022-11-23T01:57:23.865Z,3.10
2022-11-23T01:59:55.434Z,3.08
2022-11-23T02:02:24.091Z,3.40
2022-11-23T02:04:56.474Z,3.33
2022-11-23T02:07:25.625Z,3.20
2022-11-23T02:09:54.497Z,2.95
2022-11-23T02:12:23.036Z,2.65
2022-11-23T02:14:52.471Z,3.25
2022-11-23T02:17:22.559Z,2.90
2022-11-23T02:19:59.185Z,2.72
2022-11-23T02:22:35.070Z,3.40
2022-11-23T02:25:08.772Z,3.97
2022-11-23T02:27:42.656Z,3.75
2022-11-23T02:30:14.912Z,4.07
2022-11-23T02:32:43.769Z,4.25
2022-11-23T02:35:12.944Z,4.03
2022-11-23T02:37:44.633Z,4.22
2022-11-23T02:40:22.048Z,4.03
2022-11-23T02:42:52.380Z,4.72
2022-11-23T02:45:29.665Z,4.22
2022-11-23T02:47:58.190Z,3.33
2022-11-23T02:50:26.740Z,4.22
2022-11-23T02:55:23.354Z,5.15
2022-11-23T02:57:53.270Z,5.00
2022-11-23T03:00:22.079Z,4.32
2022-11-23T03:02:50.641Z,4.55
2022-11-23T03:05:19.226Z,4.68
2022-11-23T03:07:52.707Z,4.88
2022-11-23T03:12:57.828Z,3.65
2022-11-23T03:15:28.648Z,4.78
2022-11-23T03:17:58.969Z,5.10
2022-11-23T03:20:28.175Z,4.85
2022-11-23T03:22:56.791Z,5.85
2022-11-23T03:25:26.156Z,5.78
2022-11-23T03:27:58.722Z,4.75
2022-11-23T03:30:28.348Z,4.78
2022-11-23T03:35:26.106Z,4.55
2022-11-23T03:38:13.845Z,4.38
2022-11-23T03:40:46.347Z,4.57
2022-11-23T03:43:25.268Z,3.83
2022-11-23T03:45:53.878Z,4.60
2022-11-23T03:50:51.018Z,3.53
2022-11-23T03:53:19.655Z,3.72
2022-11-23T04:03:17.205Z,3.33
2022-11-23T04:06:15.310Z,3.40
2022-11-23T04:09:19.219Z,2.70
2022-11-23T04:12:23.075Z,3.20
2022-11-23T04:17:21.430Z,3.63
2022-11-23T04:19:50.580Z,3.53
2022-11-23T04:22:19.449Z,3.53
2022-11-23T04:24:48.865Z,3.63
2022-11-23T04:27:17.775Z,2.80
2022-11-23T04:29:46.211Z,2.55
2022-11-23T04:32:14.699Z,3.33
2022-11-23T04:34:48.315Z,2.92
2022-11-23T04:37:16.960Z,1.92
2022-11-23T04:39:46.202Z,3.47
2022-11-23T04:42:21.190Z,2.83
2022-11-23T04:44:55.141Z,2.55
2022-11-23T04:47:25.067Z,2.60
2022-11-23T04:49:55.731Z,3.53
2022-11-23T04:52:25.242Z,2.58
2022-11-23T04:54:53.847Z,2.30
2022-11-23T04:57:25.025Z,2.45
2022-11-23T04:59:54.381Z,3.35
2022-11-23T05:02:25.510Z,2.72
2022-11-23T05:05:11.876Z,2.40
2022-11-23T05:07:40.472Z,3.45
2022-11-23T05:12:38.559Z,2.85
2022-11-23T05:17:40.112Z,2.60
2022-11-23T05:20:17.113Z,3.00
2022-11-23T05:22:49.838Z,3.00
2022-11-23T05:25:22.449Z,3.70
2022-11-23T05:28:03.697Z,3.05
2022-11-23T05:30:39.820Z,3.20
2022-11-23T05:33:09.930Z,3.47
2022-11-23T05:38:09.170Z,3.90
2022-11-23T05:40:39.053Z,3.85
2022-11-23T05:43:21.251Z,3.70
2022-11-23T05:45:50.016Z,2.38
2022-11-23T05:48:20.343Z,3.92
2022-11-23T05:51:05.257Z,3.80
2022-11-23T05:53:39.754Z,3.47
2022-11-23T05:56:27.474Z,3.58
2022-11-23T05:59:05.454Z,4.05
2022-11-23T06:01:37.197Z,3.20
2022-11-23T06:04:08.008Z,3.47
2022-11-23T06:06:45.339Z,3.20
2022-11-23T06:09:13.966Z,3.13
2022-11-23T06:11:48.342Z,3.05
2022-11-23T06:14:20.711Z,3.05
2022-11-23T06:16:50.098Z,2.30
2022-11-23T06:19:41.593Z,2.75
2022-11-23T06:22:12.764Z,2.55
2022-11-23T06:24:56.892Z,2.17
2022-11-23T06:27:43.039Z,2.58
2022-11-23T06:30:24.073Z,2.63
2022-11-23T06:35:23.612Z,2.75
2022-11-23T06:40:27.596Z,2.67
2022-11-23T06:43:00.031Z,3.30
2022-11-23T06:45:36.886Z,3.28
2022-11-23T06:48:12.646Z,2.80
2022-11-23T06:50:45.691Z,3.20
2022-11-23T06:53:16.824Z,3.45
2022-11-23T06:55:49.719Z,4.18
2022-11-23T06:58:20.219Z,3.72
2022-11-23T07:03:22.278Z,3.97
2022-11-23T07:05:55.785Z,3.67
2022-11-23T07:08:29.422Z,3.47
2022-11-23T07:11:06.850Z,3.88
2022-11-23T07:13:42.626Z,3.33
2022-11-23T07:16:11.548Z,3.80
2022-11-23T07:21:09.550Z,3.50
2022-11-23T07:23:41.656Z,3.42
2022-11-23T07:26:10.977Z,4.18
2022-11-23T07:28:40.951Z,4.50
2022-11-23T07:31:16.457Z,3.88
2022-11-23T07:33:46.584Z,3.63
2022-11-23T07:36:15.603Z,3.00
2022-11-23T07:38:47.129Z,3.65
2022-11-23T07:41:18.509Z,4.50
2022-11-23T07:43:56.600Z,4.18
2022-11-23T07:46:25.245Z,4.45
2022-11-23T07:48:54.531Z,2.60
2022-11-23T07:51:23.029Z,3.17
2022-11-23T07:53:52.879Z,4.63
2022-11-23T07:56:21.786Z,4.28
2022-11-23T08:01:19.562Z,3.80
2022-11-23T08:03:49.330Z,4.85
2022-11-23T08:06:18.228Z,3.83
2022-11-23T08:11:18.510Z,4.53
2022-11-23T08:13:47.260Z,5.20
2022-11-23T08:16:20.220Z,5.07
2022-11-23T08:18:51.010Z,5.13
2022-11-23T08:21:19.483Z,3.28
2022-11-23T08:23:47.976Z,3.72
2022-11-23T08:26:18.662Z,5.53
2022-11-23T08:28:47.262Z,3.08
2022-11-23T08:31:15.906Z,4.85
2022-11-23T08:36:12.944Z,3.03
2022-11-23T08:38:41.485Z,2.92
2022-11-23T08:41:10.053Z,4.15
2022-11-23T08:43:40.280Z,3.92
2022-11-23T08:46:11.209Z,3.58
2022-11-23T08:48:40.154Z,2.33
2022-11-23T08:51:08.757Z,2.22
2022-11-23T08:56:07.631Z,2.25
2022-11-23T08:58:37.094Z,3.95
2022-11-23T09:01:11.115Z,2.83
2022-11-23T09:03:40.296Z,3.03
2022-11-23T09:06:09.225Z,3.08
2022-11-23T09:08:38.166Z,3.50
2022-11-23T09:11:08.844Z,3.55
2022-11-23T09:13:38.456Z,2.83
2022-11-23T09:16:08.504Z,3.60
2022-11-23T09:18:42.825Z,4.13
2022-11-23T09:21:12.502Z,2.65
2022-11-23T09:26:10.700Z,3.08
2022-11-23T09:28:44.453Z,4.53
2022-11-23T09:31:14.855Z,2.50
2022-11-23T09:33:50.311Z,4.57
2022-11-23T09:36:20.123Z,3.45
2022-11-23T09:38:56.479Z,3.45
2022-11-23T09:41:53.058Z,4.05
2022-11-23T09:44:28.701Z,4.15
2022-11-23T09:47:12.580Z,4.40
2022-11-23T09:49:53.762Z,4.68
2022-11-23T09:52:25.920Z,4.57
2022-11-23T09:54:57.591Z,4.22
2022-11-23T09:57:29.776Z,6.95
2022-11-23T10:00:04.104Z,4.75
2022-11-23T10:02:38.524Z,3.70
2022-11-23T10:05:13.433Z,3.00
2022-11-23T10:07:51.281Z,2.50
2022-11-23T10:10:36.134Z,3.23
2022-11-23T10:13:17.121Z,2.83
2022-11-23T10:16:00.954Z,2.97
2022-11-23T10:18:42.215Z,3.20
2022-11-23T10:21:23.953Z,3.72
2022-11-23T10:23:57.166Z,5.72
2022-11-23T10:26:31.513Z,3.63
2022-11-23T10:29:11.294Z,2.83
2022-11-23T10:31:42.505Z,3.63
2022-11-23T10:34:14.388Z,2.90
2022-11-23T10:36:44.411Z,2.38
2022-11-23T10:39:21.078Z,3.25
2022-11-23T10:41:50.568Z,2.88
2022-11-23T10:44:32.679Z,3.47
2022-11-23T10:47:01.848Z,2.88
2022-11-23T10:49:33.132Z,3.30
2022-11-23T10:52:05.861Z,3.17
2022-11-23T10:54:37.161Z,3.92
2022-11-23T10:57:23.486Z,2.67
2022-11-23T11:00:00.735Z,3.20
2022-11-23T11:02:30.989Z,3.05
2022-11-23T11:06:08.001Z,2.38
2022-11-23T11:08:25.424Z,3.25
2022-11-23T11:11:00.323Z,2.63
2022-11-23T11:13:31.846Z,2.80
2022-11-23T11:16:02.487Z,4.13
2022-11-23T11:18:33.084Z,2.45
2022-11-23T11:21:05.855Z,4.40
2022-11-23T11:23:40.505Z,4.45
2022-11-23T11:26:15.403Z,4.40
2022-11-23T11:28:48.646Z,4.50
2022-11-23T11:31:52.123Z,4.20
2022-11-23T11:34:27.496Z,3.72
2022-11-23T11:37:03.982Z,3.63
2022-11-23T11:39:39.749Z,3.97
2022-11-23T11:42:15.536Z,4.07
2022-11-23T11:44:47.754Z,2.42
2022-11-23T11:47:28.458Z,4.40
2022-11-23T11:50:01.145Z,4.65
2022-11-23T11:52:40.501Z,4.68
2022-11-23T11:55:16.783Z,3.88
2022-11-23T11:57:48.824Z,4.38
2022-11-23T12:00:20.528Z,3.65
2022-11-23T12:03:02.479Z,2.42
2022-11-23T12:05:40.133Z,3.70
2022-11-23T12:08:14.346Z,2.42
2022-11-23T12:10:49.587Z,2.97
2022-11-23T12:13:20.510Z,3.13
2022-11-23T12:15:56.201Z,3.15
2022-11-23T12:18:46.062Z,2.97
2022-11-23T12:21:50.041Z,2.38
2022-11-23T12:24:28.436Z,2.42
2022-11-23T12:27:11.545Z,3.40
2022-11-23T12:30:00.622Z,1.83
2022-11-23T12:32:43.185Z,4.00
2022-11-23T12:35:43.218Z,3.10
2022-11-23T12:38:27.412Z,3.13
2022-11-23T12:41:23.188Z,2.75
2022-11-23T12:44:24.782Z,3.25
2022-11-23T12:46:59.986Z,2.97
2022-11-23T12:49:39.193Z,2.90
2022-11-23T12:52:28.920Z,2.20
2022-11-23T12:55:06.535Z,3.67
2022-11-23T12:57:42.990Z,2.60
2022-11-23T13:00:20.185Z,2.25
2022-11-23T13:03:34.638Z,2.67
2022-11-23T13:06:32.504Z,3.05
2022-11-23T13:09:36.302Z,3.03
2022-11-23T13:12:29.478Z,3.45
2022-11-23T13:15:07.097Z,3.83
2022-11-23T13:17:47.694Z,4.17
2022-11-23T13:20:40.359Z,4.22
2022-11-23T13:23:09.895Z,4.15
2022-11-23T13:25:39.280Z,4.00
2022-11-23T13:28:30.333Z,4.68
2022-11-23T13:31:28.460Z,2.28
2022-11-23T13:34:00.215Z,3.50
2022-11-23T13:40:04.029Z,4.03
2022-11-23T13:42:35.885Z,2.45
2022-11-23T13:45:26.270Z,2.00
2022-11-23T13:51:14.494Z,3.50
2022-11-23T13:53:52.051Z,3.65
2022-11-23T13:56:36.926Z,4.15
2022-11-23T13:59:29.401Z,4.93
2022-11-23T14:02:26.877Z,5.18
2022-11-23T14:05:32.554Z,4.57
2022-11-23T14:08:05.122Z,4.70
2022-11-23T14:10:34.766Z,5.35
2022-11-23T14:13:13.773Z,8.48
2022-11-23T14:15:45.631Z,3.92
2022-11-23T14:18:45.525Z,3.55
2022-11-23T14:21:17.980Z,2.75
2022-11-23T14:24:25.264Z,3.60
2022-11-23T14:27:39.144Z,1.67
2022-11-23T14:30:09.006Z,2.67
2022-11-23T14:32:49.068Z,2.22
2022-11-23T14:35:26.236Z,3.17
2022-11-23T14:38:33.810Z,3.17
2022-11-23T14:41:08.540Z,3.78
2022-11-23T14:43:41.520Z,3.38
2022-11-23T14:46:19.230Z,2.30
2022-11-23T14:48:48.700Z,2.40
2022-11-23T14:51:24.011Z,2.65
2022-11-23T14:53:55.479Z,3.22
2022-11-23T14:56:33.914Z,3.67
2022-11-23T14:59:07.053Z,3.75
2022-11-23T15:01:36.586Z,1.73
2022-11-23T15:04:10.730Z,2.55
2022-11-23T15:06:45.989Z,3.22
2022-11-23T15:09:27.763Z,4.00
2022-11-23T15:12:09.022Z,2.60
2022-11-23T15:14:37.611Z,3.72
2022-11-23T15:17:16.954Z,3.60
2022-11-23T15:19:54.148Z,2.83
2022-11-23T15:22:24.684Z,3.47
2022-11-23T15:24:53.676Z,2.88
2022-11-23T15:27:28.462Z,2.95
2022-11-23T15:30:08.538Z,2.92
2022-11-23T15:32:39.284Z,3.35
2022-11-23T15:35:11.838Z,3.63
2022-11-23T15:37:45.998Z,4.53
2022-11-23T15:40:16.364Z,5.15
2022-11-23T15:42:49.843Z,3.58
2022-11-23T15:46:03.188Z,5.45
2022-11-23T15:48:34.380Z,4.88
2022-11-23T15:51:08.576Z,2.88
2022-11-23T15:53:52.727Z,4.57
2022-11-23T15:56:25.154Z,4.57
2022-11-23T15:58:56.805Z,3.92
2022-11-23T16:01:27.930Z,3.58
2022-11-23T16:04:04.269Z,3.90
2022-11-23T16:07:11.770Z,3.08
2022-11-23T16:09:53.148Z,6.28
2022-11-23T16:12:27.864Z,3.90
2022-11-23T16:14:59.719Z,4.60
2022-11-23T16:17:33.580Z,3.80
2022-11-23T16:20:17.043Z,6.18
2022-11-23T16:22:53.455Z,6.25
2022-11-23T16:25:28.701Z,6.47
2022-11-23T16:28:01.244Z,4.68
2022-11-23T16:30:38.855Z,4.65
2022-11-23T16:33:10.526Z,5.72
2022-11-23T16:35:39.267Z,6.90
2022-11-23T16:38:09.081Z,6.50
2022-11-23T16:40:44.891Z,4.22
2022-11-23T16:43:16.507Z,3.95
2022-11-23T16:45:51.356Z,6.03
2022-11-23T16:48:42.243Z,4.97
2022-11-23T16:51:16.510Z,5.70
2022-11-23T16:54:12.652Z,3.88
2022-11-23T16:56:39.553Z,3.75
2022-11-23T16:59:10.463Z,3.88
2022-11-23T17:01:43.292Z,3.00
2022-11-23T17:04:18.605Z,3.10
2022-11-23T17:10:23.123Z,2.05
2022-11-23T17:13:30.222Z,4.20
2022-11-23T17:15:59.118Z,2.88
2022-11-23T17:18:31.893Z,5.47
2022-11-23T17:21:01.920Z,7.30
2022-11-23T17:23:33.362Z,4.60
2022-11-23T17:26:05.371Z,5.30
2022-11-23T17:28:35.405Z,5.20
2022-11-23T17:31:23.387Z,4.75
2022-11-23T17:33:58.856Z,4.50
2022-11-23T17:36:28.553Z,4.25
2022-11-23T17:38:57.632Z,3.97
2022-11-23T17:41:34.553Z,4.45
2022-11-23T17:44:16.460Z,4.63
2022-11-23T17:46:52.610Z,3.67
2022-11-23T17:49:28.490Z,5.60
2022-11-23T17:51:59.507Z,5.00
2022-11-23T17:54:33.505Z,4.18
2022-11-23T17:57:06.038Z,4.47
2022-11-23T17:59:45.429Z,4.43
2022-11-23T18:05:21.443Z,4.25
2022-11-23T18:08:06.772Z,3.83
2022-11-23T18:11:02.087Z,2.50
2022-11-23T18:13:37.034Z,2.60
2022-11-23T18:16:14.356Z,2.13
2022-11-23T18:18:46.702Z,4.28
2022-11-23T18:21:28.689Z,4.40
2022-11-23T18:24:06.053Z,4.60
2022-11-23T18:26:44.792Z,4.20
2022-11-23T18:29:38.120Z,4.40
2022-11-23T18:32:08.559Z,2.70
2022-11-23T18:34:37.625Z,4.35
2022-11-23T18:37:08.004Z,4.60
2022-11-23T18:39:36.638Z,5.15
2022-11-23T18:44:35.362Z,4.95
2022-11-23T18:47:03.986Z,3.53
2022-11-23T18:49:32.770Z,4.25
2022-11-23T18:52:01.655Z,4.20
2022-11-23T18:54:31.657Z,4.32
2022-11-23T18:57:00.225Z,2.97
2022-11-23T18:59:56.429Z,5.18
2022-11-23T19:02:17.658Z,5.57
2022-11-23T19:07:15.948Z,4.60
2022-11-23T19:09:46.005Z,5.38
2022-11-23T19:12:14.860Z,4.38
2022-11-23T19:14:46.015Z,5.45
2022-11-23T19:17:18.892Z,4.10
2022-11-23T19:19:53.527Z,5.18
2022-11-23T19:22:22.126Z,4.75
2022-11-23T19:24:52.546Z,3.58
2022-11-23T19:27:21.943Z,5.72
2022-11-23T19:29:50.673Z,3.92
2022-11-23T19:34:50.349Z,5.00
2022-11-23T19:37:18.791Z,4.05
2022-11-23T19:39:47.300Z,3.45
2022-11-23T19:44:45.572Z,3.75
2022-11-23T19:47:19.919Z,3.47
2022-11-23T19:49:51.007Z,5.22
2022-11-23T19:52:19.373Z,3.10
2022-11-23T19:54:47.884Z,4.50
2022-11-23T19:59:50.043Z,4.60
2022-11-23T20:04:53.094Z,3.80
2022-11-23T20:07:21.916Z,4.80
2022-11-23T20:09:51.159Z,3.55
2022-11-23T20:12:21.223Z,5.50
2022-11-23T20:14:49.741Z,5.57
2022-11-23T20:17:18.196Z,3.50
2022-11-23T20:22:15.082Z,3.83
2022-11-23T20:27:11.730Z,5.50
2022-11-23T20:32:12.274Z,5.35
2022-11-23T20:34:40.799Z,5.00
2022-11-23T20:37:09.467Z,5.97
2022-11-23T20:39:38.290Z,6.20
2022-11-23T20:42:06.913Z,5.05
2022-11-23T20:47:06.154Z,3.20
2022-11-23T20:49:35.005Z,6.50
2022-11-23T20:52:03.730Z,5.38
2022-11-23T20:54:32.768Z,4.07
2022-11-23T20:57:01.558Z,5.30
2022-11-23T20:59:31.476Z,5.93
2022-11-23T21:02:00.124Z,4.85
2022-11-23T21:06:58.114Z,4.80
2022-11-23T21:09:26.657Z,4.45
2022-11-23T21:14:43.089Z,4.68
2022-11-23T21:17:11.486Z,5.13
2022-11-23T21:22:11.429Z,5.43
2022-11-23T21:24:40.527Z,5.22
2022-11-23T21:27:12.072Z,4.97
2022-11-23T21:29:40.785Z,4.50
2022-11-23T21:32:09.270Z,5.40
2022-11-23T21:37:07.866Z,5.50
2022-11-23T21:39:36.452Z,4.28
2022-11-23T21:42:04.869Z,3.97
2022-11-23T21:51:58.289Z,5.10
2022-11-23T21:54:28.218Z,5.50
2022-11-23T21:56:56.753Z,2.60
2022-11-23T21:59:25.818Z,3.03
2022-11-23T22:01:58.823Z,4.47
2022-11-23T22:04:27.658Z,3.60
2022-11-23T22:06:56.111Z,2.95
2022-11-23T22:09:24.593Z,4.13
2022-11-23T22:11:54.484Z,4.55
2022-11-23T22:14:23.029Z,3.92
2022-11-23T22:16:53.857Z,4.72
2022-11-23T22:19:22.343Z,3.58
2022-11-23T22:21:50.794Z,4.43
2022-11-23T22:24:21.360Z,5.32
2022-11-23T22:26:50.051Z,3.45
2022-11-23T22:29:20.522Z,3.38
2022-11-23T22:31:49.300Z,5.28
2022-11-23T22:34:17.977Z,5.10
2022-11-23T22:39:14.612Z,4.45
2022-11-23T22:44:11.810Z,5.03
2022-11-23T22:46:41.725Z,4.55
2022-11-23T22:49:11.007Z,5.72
2022-11-23T22:51:39.481Z,5.50
2022-11-23T22:54:07.873Z,5.28
2022-11-23T22:56:36.347Z,3.78
2022-11-23T22:59:05.853Z,5.15
2022-11-23T23:01:34.344Z,6.80
2022-11-23T23:04:04.648Z,6.43
2022-11-23T23:06:35.384Z,8.93
2022-11-23T23:09:05.869Z,7.07
2022-11-23T23:11:35.457Z,5.47
2022-11-23T23:14:04.124Z,8.23
2022-11-23T23:16:33.142Z,7.45
2022-11-23T23:19:03.665Z,7.25
2022-11-23T23:21:32.294Z,8.20
2022-11-23T23:26:30.839Z,9.23
2022-11-23T23:29:01.217Z,9.13
2022-11-23T23:31:30.550Z,4.97
2022-11-23T23:34:00.470Z,6.57
2022-11-23T23:36:30.869Z,5.82
2022-11-23T23:38:59.319Z,5.47
2022-11-23T23:41:27.885Z,7.43
2022-11-23T23:43:56.602Z,8.88
2022-11-23T23:46:28.000Z,6.47
2022-11-23T23:48:56.750Z,5.15
2022-11-23T23:51:26.007Z,4.57
2022-11-23T23:53:55.901Z,3.92
2022-11-23T23:56:26.870Z,6.60
2022-11-23T23:58:58.278Z,5.82
